sensor_id;sensor_type;location;lat;lon;timestamp;P1;durP1;ratioP1;P2;durP2;ratioP2
12631;SDS011;6381;45.748;12.106;2023-10-19T00:00:56;19.30;;;17.30;;
12631;SDS011;6381;45.748;12.106;2023-10-19T00:03:26;21.23;;;17.17;;
12631;SDS011;6381;45.748;12.106;2023-10-19T00:05:55;20.67;;;18.47;;
12631;SDS011;6381;45.748;12.106;2023-10-19T00:08:25;19.90;;;17.90;;
12631;SDS011;6381;45.748;12.106;2023-10-19T00:11:03;21.83;;;18.50;;
12631;SDS011;6381;45.748;12.106;2023-10-19T00:13:35;20.83;;;18.67;;
12631;SDS011;6381;45.748;12.106;2023-10-19T00:16:05;21.30;;;19.10;;
12631;SDS011;6381;45.748;12.106;2023-10-19T00:18:39;21.47;;;19.33;;
12631;SDS011;6381;45.748;12.106;2023-10-19T00:21:09;21.53;;;19.37;;
12631;SDS011;6381;45.748;12.106;2023-10-19T00:23:50;21.80;;;19.53;;
12631;SDS011;6381;45.748;12.106;2023-10-19T00:26:24;22.33;;;20.03;;
12631;SDS011;6381;45.748;12.106;2023-10-19T00:28:57;21.63;;;19.47;;
12631;SDS011;6381;45.748;12.106;2023-10-19T00:31:32;24.97;;;19.20;;
12631;SDS011;6381;45.748;12.106;2023-10-19T00:34:07;20.50;;;18.50;;
12631;SDS011;6381;45.748;12.106;2023-10-19T00:36:36;21.10;;;19.00;;
12631;SDS011;6381;45.748;12.106;2023-10-19T00:39:07;21.63;;;19.33;;
12631;SDS011;6381;45.748;12.106;2023-10-19T00:41:47;20.27;;;18.17;;
12631;SDS011;6381;45.748;12.106;2023-10-19T00:44:16;20.40;;;18.30;;
12631;SDS011;6381;45.748;12.106;2023-10-19T00:46:51;20.50;;;18.37;;
12631;SDS011;6381;45.748;12.106;2023-10-19T00:49:27;20.23;;;18.10;;
12631;SDS011;6381;45.748;12.106;2023-10-19T00:51:56;20.83;;;17.77;;
12631;SDS011;6381;45.748;12.106;2023-10-19T00:54:32;19.67;;;17.67;;
12631;SDS011;6381;45.748;12.106;2023-10-19T00:57:04;20.57;;;18.47;;
12631;SDS011;6381;45.748;12.106;2023-10-19T00:59:36;21.40;;;18.20;;
12631;SDS011;6381;45.748;12.106;2023-10-19T01:02:10;19.63;;;17.63;;
12631;SDS011;6381;45.748;12.106;2023-10-19T01:04:47;19.23;;;17.10;;
12631;SDS011;6381;45.748;12.106;2023-10-19T01:07:23;19.20;;;17.30;;
12631;SDS011;6381;45.748;12.106;2023-10-19T01:09:57;19.87;;;17.17;;
12631;SDS011;6381;45.748;12.106;2023-10-19T01:12:27;18.90;;;16.90;;
12631;SDS011;6381;45.748;12.106;2023-10-19T01:15:07;18.63;;;16.60;;
12631;SDS011;6381;45.748;12.106;2023-10-19T01:17:43;18.83;;;16.50;;
12631;SDS011;6381;45.748;12.106;2023-10-19T01:20:14;17.13;;;15.33;;
12631;SDS011;6381;45.748;12.106;2023-10-19T01:22:50;17.23;;;15.47;;
12631;SDS011;6381;45.748;12.106;2023-10-19T01:25:32;18.57;;;16.63;;
12631;SDS011;6381;45.748;12.106;2023-10-19T01:28:13;17.50;;;15.77;;
12631;SDS011;6381;45.748;12.106;2023-10-19T01:30:44;17.37;;;15.57;;
12631;SDS011;6381;45.748;12.106;2023-10-19T01:33:18;16.83;;;15.13;;
12631;SDS011;6381;45.748;12.106;2023-10-19T01:35:48;16.37;;;14.77;;
12631;SDS011;6381;45.748;12.106;2023-10-19T01:38:36;16.07;;;14.47;;
12631;SDS011;6381;45.748;12.106;2023-10-19T01:41:05;16.43;;;14.83;;
12631;SDS011;6381;45.748;12.106;2023-10-19T01:43:40;16.53;;;14.83;;
12631;SDS011;6381;45.748;12.106;2023-10-19T01:46:10;17.67;;;15.77;;
12631;SDS011;6381;45.748;12.106;2023-10-19T01:48:39;17.30;;;15.60;;
12631;SDS011;6381;45.748;12.106;2023-10-19T01:51:09;17.10;;;15.40;;
12631;SDS011;6381;45.748;12.106;2023-10-19T01:53:41;17.33;;;15.53;;
12631;SDS011;6381;45.748;12.106;2023-10-19T01:56:12;16.17;;;14.57;;
12631;SDS011;6381;45.748;12.106;2023-10-19T01:58:41;15.33;;;13.83;;
12631;SDS011;6381;45.748;12.106;2023-10-19T02:01:14;15.43;;;13.83;;
12631;SDS011;6381;45.748;12.106;2023-10-19T02:03:47;15.43;;;13.87;;
12631;SDS011;6381;45.748;12.106;2023-10-19T02:06:22;16.27;;;14.60;;
12631;SDS011;6381;45.748;12.106;2023-10-19T02:08:56;15.20;;;13.80;;
12631;SDS011;6381;45.748;12.106;2023-10-19T02:11:35;16.00;;;14.13;;
12631;SDS011;6381;45.748;12.106;2023-10-19T02:14:05;15.70;;;14.17;;
12631;SDS011;6381;45.748;12.106;2023-10-19T02:16:41;16.73;;;14.97;;
12631;SDS011;6381;45.748;12.106;2023-10-19T02:19:10;16.43;;;14.17;;
12631;SDS011;6381;45.748;12.106;2023-10-19T02:21:39;15.97;;;14.30;;
12631;SDS011;6381;45.748;12.106;2023-10-19T02:24:09;15.23;;;13.70;;
12631;SDS011;6381;45.748;12.106;2023-10-19T02:26:41;16.00;;;14.40;;
12631;SDS011;6381;45.748;12.106;2023-10-19T02:29:09;14.90;;;13.43;;
12631;SDS011;6381;45.748;12.106;2023-10-19T02:31:40;17.00;;;14.40;;
12631;SDS011;6381;45.748;12.106;2023-10-19T02:34:08;15.47;;;13.97;;
12631;SDS011;6381;45.748;12.106;2023-10-19T02:36:38;15.37;;;13.77;;
12631;SDS011;6381;45.748;12.106;2023-10-19T02:39:07;15.80;;;14.20;;
12631;SDS011;6381;45.748;12.106;2023-10-19T02:41:38;14.53;;;13.03;;
12631;SDS011;6381;45.748;12.106;2023-10-19T02:44:09;15.37;;;13.87;;
12631;SDS011;6381;45.748;12.106;2023-10-19T02:46:46;15.20;;;13.60;;
12631;SDS011;6381;45.748;12.106;2023-10-19T02:49:17;14.67;;;13.27;;
12631;SDS011;6381;45.748;12.106;2023-10-19T02:51:47;15.20;;;13.60;;
12631;SDS011;6381;45.748;12.106;2023-10-19T02:54:20;14.03;;;12.33;;
12631;SDS011;6381;45.748;12.106;2023-10-19T02:56:50;13.37;;;12.07;;
12631;SDS011;6381;45.748;12.106;2023-10-19T02:59:20;13.83;;;12.50;;
12631;SDS011;6381;45.748;12.106;2023-10-19T03:01:51;13.53;;;12.23;;
12631;SDS011;6381;45.748;12.106;2023-10-19T03:04:28;13.13;;;11.87;;
12631;SDS011;6381;45.748;12.106;2023-10-19T03:06:56;13.23;;;11.90;;
12631;SDS011;6381;45.748;12.106;2023-10-19T03:09:26;14.50;;;11.40;;
12631;SDS011;6381;45.748;12.106;2023-10-19T03:11:57;12.93;;;11.73;;
12631;SDS011;6381;45.748;12.106;2023-10-19T03:14:26;13.63;;;12.33;;
12631;SDS011;6381;45.748;12.106;2023-10-19T03:16:56;13.50;;;12.30;;
12631;SDS011;6381;45.748;12.106;2023-10-19T03:19:27;14.40;;;12.37;;
12631;SDS011;6381;45.748;12.106;2023-10-19T03:21:55;14.60;;;13.20;;
12631;SDS011;6381;45.748;12.106;2023-10-19T03:24:28;13.47;;;12.17;;
12631;SDS011;6381;45.748;12.106;2023-10-19T03:27:03;15.80;;;12.37;;
12631;SDS011;6381;45.748;12.106;2023-10-19T03:29:40;13.03;;;11.73;;
12631;SDS011;6381;45.748;12.106;2023-10-19T03:32:13;13.47;;;12.10;;
12631;SDS011;6381;45.748;12.106;2023-10-19T03:34:44;13.27;;;11.97;;
12631;SDS011;6381;45.748;12.106;2023-10-19T03:37:17;14.33;;;12.63;;
12631;SDS011;6381;45.748;12.106;2023-10-19T03:39:50;13.53;;;11.87;;
12631;SDS011;6381;45.748;12.106;2023-10-19T03:42:19;13.50;;;12.13;;
12631;SDS011;6381;45.748;12.106;2023-10-19T03:44:54;12.77;;;11.47;;
12631;SDS011;6381;45.748;12.106;2023-10-19T03:47:24;11.40;;;10.30;;
12631;SDS011;6381;45.748;12.106;2023-10-19T03:50:00;10.40;;;9.30;;
12631;SDS011;6381;45.748;12.106;2023-10-19T03:52:34;9.80;;;8.80;;
12631;SDS011;6381;45.748;12.106;2023-10-19T03:55:06;10.17;;;9.17;;
12631;SDS011;6381;45.748;12.106;2023-10-19T03:57:42;11.13;;;10.13;;
12631;SDS011;6381;45.748;12.106;2023-10-19T04:00:18;10.93;;;9.90;;
12631;SDS011;6381;45.748;12.106;2023-10-19T04:02:51;8.83;;;8.03;;
12631;SDS011;6381;45.748;12.106;2023-10-19T04:05:22;9.20;;;8.30;;
12631;SDS011;6381;45.748;12.106;2023-10-19T04:07:52;8.90;;;8.00;;
12631;SDS011;6381;45.748;12.106;2023-10-19T04:10:25;9.17;;;8.23;;
12631;SDS011;6381;45.748;12.106;2023-10-19T04:13:11;8.27;;;7.57;;
12631;SDS011;6381;45.748;12.106;2023-10-19T04:15:40;7.77;;;7.03;;
12631;SDS011;6381;45.748;12.106;2023-10-19T04:18:11;8.10;;;7.40;;
12631;SDS011;6381;45.748;12.106;2023-10-19T04:20:39;7.30;;;6.60;;
12631;SDS011;6381;45.748;12.106;2023-10-19T04:23:23;7.90;;;7.20;;
12631;SDS011;6381;45.748;12.106;2023-10-19T04:25:56;7.53;;;6.83;;
12631;SDS011;6381;45.748;12.106;2023-10-19T04:28:31;6.33;;;5.73;;
12631;SDS011;6381;45.748;12.106;2023-10-19T04:31:06;8.00;;;6.63;;
12631;SDS011;6381;45.748;12.106;2023-10-19T04:33:40;6.33;;;5.73;;
12631;SDS011;6381;45.748;12.106;2023-10-19T04:36:13;5.30;;;4.80;;
12631;SDS011;6381;45.748;12.106;2023-10-19T04:38:42;4.20;;;3.90;;
12631;SDS011;6381;45.748;12.106;2023-10-19T04:41:13;4.20;;;3.80;;
12631;SDS011;6381;45.748;12.106;2023-10-19T04:43:42;3.00;;;2.80;;
12631;SDS011;6381;45.748;12.106;2023-10-19T04:46:17;2.70;;;2.50;;
12631;SDS011;6381;45.748;12.106;2023-10-19T04:48:46;2.77;;;2.57;;
12631;SDS011;6381;45.748;12.106;2023-10-19T04:51:16;2.67;;;2.47;;
12631;SDS011;6381;45.748;12.106;2023-10-19T04:53:45;2.63;;;2.43;;
12631;SDS011;6381;45.748;12.106;2023-10-19T04:56:16;2.63;;;2.43;;
12631;SDS011;6381;45.748;12.106;2023-10-19T04:58:45;2.53;;;2.33;;
12631;SDS011;6381;45.748;12.106;2023-10-19T05:01:15;3.00;;;2.50;;
12631;SDS011;6381;45.748;12.106;2023-10-19T05:03:44;3.27;;;2.97;;
12631;SDS011;6381;45.748;12.106;2023-10-19T05:06:13;3.00;;;2.80;;
12631;SDS011;6381;45.748;12.106;2023-10-19T05:08:42;3.30;;;3.00;;
12631;SDS011;6381;45.748;12.106;2023-10-19T05:11:10;3.30;;;3.00;;
12631;SDS011;6381;45.748;12.106;2023-10-19T05:13:40;4.07;;;3.00;;
12631;SDS011;6381;45.748;12.106;2023-10-19T05:16:09;3.33;;;3.03;;
12631;SDS011;6381;45.748;12.106;2023-10-19T05:18:38;4.10;;;3.57;;
12631;SDS011;6381;45.748;12.106;2023-10-19T05:21:06;4.50;;;4.10;;
12631;SDS011;6381;45.748;12.106;2023-10-19T05:23:36;4.00;;;3.40;;
12631;SDS011;6381;45.748;12.106;2023-10-19T05:26:05;17.03;;;14.90;;
12631;SDS011;6381;45.748;12.106;2023-10-19T05:28:34;18.13;;;16.43;;
12631;SDS011;6381;45.748;12.106;2023-10-19T05:31:04;14.03;;;12.83;;
12631;SDS011;6381;45.748;12.106;2023-10-19T05:33:33;6.53;;;5.93;;
12631;SDS011;6381;45.748;12.106;2023-10-19T05:36:01;7.70;;;6.97;;
12631;SDS011;6381;45.748;12.106;2023-10-19T05:38:31;31.87;;;28.43;;
12631;SDS011;6381;45.748;12.106;2023-10-19T05:41:02;20.43;;;18.43;;
12631;SDS011;6381;45.748;12.106;2023-10-19T05:43:31;38.00;;;34.07;;
12631;SDS011;6381;45.748;12.106;2023-10-19T05:46:01;38.07;;;34.27;;
12631;SDS011;6381;45.748;12.106;2023-10-19T05:48:31;15.40;;;14.10;;
12631;SDS011;6381;45.748;12.106;2023-10-19T05:50:59;10.90;;;9.90;;
12631;SDS011;6381;45.748;12.106;2023-10-19T05:53:29;12.00;;;10.83;;
12631;SDS011;6381;45.748;12.106;2023-10-19T05:55:57;11.63;;;10.60;;
12631;SDS011;6381;45.748;12.106;2023-10-19T05:58:26;5.80;;;5.40;;
12631;SDS011;6381;45.748;12.106;2023-10-19T06:00:57;4.10;;;3.80;;
12631;SDS011;6381;45.748;12.106;2023-10-19T06:03:26;3.60;;;3.30;;
12631;SDS011;6381;45.748;12.106;2023-10-19T06:05:57;3.40;;;3.10;;
12631;SDS011;6381;45.748;12.106;2023-10-19T06:08:27;3.53;;;3.23;;
12631;SDS011;6381;45.748;12.106;2023-10-19T06:10:58;14.30;;;10.40;;
12631;SDS011;6381;45.748;12.106;2023-10-19T06:13:28;23.77;;;17.97;;
12631;SDS011;6381;45.748;12.106;2023-10-19T06:15:57;18.27;;;15.60;;
12631;SDS011;6381;45.748;12.106;2023-10-19T06:18:26;12.63;;;11.33;;
12631;SDS011;6381;45.748;12.106;2023-10-19T06:21:00;6.70;;;4.83;;
12631;SDS011;6381;45.748;12.106;2023-10-19T06:23:29;4.20;;;3.80;;
12631;SDS011;6381;45.748;12.106;2023-10-19T06:25:58;4.23;;;3.80;;
12631;SDS011;6381;45.748;12.106;2023-10-19T06:28:31;4.10;;;3.70;;
12631;SDS011;6381;45.748;12.106;2023-10-19T06:31:05;3.43;;;3.13;;
12631;SDS011;6381;45.748;12.106;2023-10-19T06:33:34;2.90;;;2.70;;
12631;SDS011;6381;45.748;12.106;2023-10-19T06:36:05;3.10;;;2.90;;
12631;SDS011;6381;45.748;12.106;2023-10-19T06:38:35;3.10;;;2.90;;
12631;SDS011;6381;45.748;12.106;2023-10-19T06:41:10;5.50;;;3.73;;
12631;SDS011;6381;45.748;12.106;2023-10-19T06:43:39;9.83;;;6.20;;
12631;SDS011;6381;45.748;12.106;2023-10-19T06:46:08;9.03;;;6.10;;
12631;SDS011;6381;45.748;12.106;2023-10-19T06:48:39;18.87;;;9.40;;
12631;SDS011;6381;45.748;12.106;2023-10-19T06:51:10;29.97;;;15.43;;
12631;SDS011;6381;45.748;12.106;2023-10-19T06:53:40;49.37;;;24.73;;
12631;SDS011;6381;45.748;12.106;2023-10-19T06:56:09;20.00;;;11.03;;
12631;SDS011;6381;45.748;12.106;2023-10-19T06:58:37;9.23;;;5.40;;
12631;SDS011;6381;45.748;12.106;2023-10-19T07:01:07;5.57;;;4.27;;
12631;SDS011;6381;45.748;12.106;2023-10-19T07:03:36;5.53;;;4.00;;
12631;SDS011;6381;45.748;12.106;2023-10-19T07:06:05;4.77;;;4.37;;
12631;SDS011;6381;45.748;12.106;2023-10-19T07:08:41;5.10;;;4.30;;
12631;SDS011;6381;45.748;12.106;2023-10-19T07:11:10;10.77;;;6.70;;
12631;SDS011;6381;45.748;12.106;2023-10-19T07:13:39;13.77;;;8.40;;
12631;SDS011;6381;45.748;12.106;2023-10-19T07:16:10;6.00;;;4.60;;
12631;SDS011;6381;45.748;12.106;2023-10-19T07:18:39;6.03;;;4.63;;
12631;SDS011;6381;45.748;12.106;2023-10-19T07:21:08;4.73;;;3.60;;
12631;SDS011;6381;45.748;12.106;2023-10-19T07:23:38;3.67;;;3.37;;
12631;SDS011;6381;45.748;12.106;2023-10-19T07:26:11;6.13;;;3.80;;
12631;SDS011;6381;45.748;12.106;2023-10-19T07:28:40;3.53;;;3.13;;
12631;SDS011;6381;45.748;12.106;2023-10-19T07:31:09;5.00;;;4.60;;
12631;SDS011;6381;45.748;12.106;2023-10-19T07:33:42;6.10;;;5.10;;
12631;SDS011;6381;45.748;12.106;2023-10-19T07:36:13;6.33;;;5.37;;
12631;SDS011;6381;45.748;12.106;2023-10-19T07:38:44;6.13;;;5.00;;
12631;SDS011;6381;45.748;12.106;2023-10-19T07:41:14;11.27;;;7.07;;
12631;SDS011;6381;45.748;12.106;2023-10-19T07:43:43;7.57;;;5.83;;
12631;SDS011;6381;45.748;12.106;2023-10-19T07:46:12;7.53;;;5.80;;
12631;SDS011;6381;45.748;12.106;2023-10-19T07:48:41;11.70;;;8.53;;
12631;SDS011;6381;45.748;12.106;2023-10-19T07:51:09;8.40;;;6.60;;
12631;SDS011;6381;45.748;12.106;2023-10-19T07:53:38;4.67;;;4.17;;
12631;SDS011;6381;45.748;12.106;2023-10-19T07:56:09;2.90;;;2.60;;
12631;SDS011;6381;45.748;12.106;2023-10-19T07:58:37;2.70;;;2.50;;
12631;SDS011;6381;45.748;12.106;2023-10-19T08:01:08;2.50;;;2.30;;
12631;SDS011;6381;45.748;12.106;2023-10-19T08:03:38;3.93;;;2.47;;
12631;SDS011;6381;45.748;12.106;2023-10-19T08:06:07;2.97;;;1.90;;
12631;SDS011;6381;45.748;12.106;2023-10-19T08:08:36;2.07;;;1.87;;
12631;SDS011;6381;45.748;12.106;2023-10-19T08:11:05;3.10;;;2.17;;
12631;SDS011;6381;45.748;12.106;2023-10-19T08:13:36;3.33;;;2.37;;
12631;SDS011;6381;45.748;12.106;2023-10-19T08:16:06;2.50;;;2.27;;
12631;SDS011;6381;45.748;12.106;2023-10-19T08:18:35;3.57;;;2.53;;
12631;SDS011;6381;45.748;12.106;2023-10-19T08:21:04;2.30;;;2.10;;
12631;SDS011;6381;45.748;12.106;2023-10-19T08:23:34;2.50;;;2.10;;
12631;SDS011;6381;45.748;12.106;2023-10-19T08:26:03;3.50;;;2.20;;
12631;SDS011;6381;45.748;12.106;2023-10-19T08:28:32;2.37;;;2.17;;
12631;SDS011;6381;45.748;12.106;2023-10-19T08:31:03;2.40;;;2.20;;
12631;SDS011;6381;45.748;12.106;2023-10-19T08:33:32;3.17;;;2.60;;
12631;SDS011;6381;45.748;12.106;2023-10-19T08:36:05;3.17;;;2.20;;
12631;SDS011;6381;45.748;12.106;2023-10-19T08:38:34;4.60;;;2.70;;
12631;SDS011;6381;45.748;12.106;2023-10-19T08:41:03;4.03;;;2.70;;
12631;SDS011;6381;45.748;12.106;2023-10-19T08:43:32;4.37;;;3.97;;
12631;SDS011;6381;45.748;12.106;2023-10-19T08:46:06;5.67;;;4.37;;
12631;SDS011;6381;45.748;12.106;2023-10-19T08:48:35;4.63;;;4.23;;
12631;SDS011;6381;45.748;12.106;2023-10-19T08:51:08;5.27;;;4.77;;
12631;SDS011;6381;45.748;12.106;2023-10-19T08:53:38;6.97;;;5.10;;
12631;SDS011;6381;45.748;12.106;2023-10-19T08:56:08;5.67;;;5.07;;
12631;SDS011;6381;45.748;12.106;2023-10-19T08:58:38;5.67;;;4.97;;
12631;SDS011;6381;45.748;12.106;2023-10-19T09:01:09;5.03;;;4.53;;
12631;SDS011;6381;45.748;12.106;2023-10-19T09:03:39;8.77;;;6.60;;
12631;SDS011;6381;45.748;12.106;2023-10-19T09:06:10;17.97;;;15.03;;
12631;SDS011;6381;45.748;12.106;2023-10-19T09:08:41;5.33;;;4.93;;
12631;SDS011;6381;45.748;12.106;2023-10-19T09:11:13;4.70;;;4.27;;
12631;SDS011;6381;45.748;12.106;2023-10-19T09:13:42;4.87;;;4.37;;
12631;SDS011;6381;45.748;12.106;2023-10-19T09:16:15;5.90;;;4.20;;
12631;SDS011;6381;45.748;12.106;2023-10-19T09:18:46;4.65;;;3.90;;
12631;SDS011;6381;45.748;12.106;2023-10-19T09:21:15;16.90;;;13.57;;
12631;SDS011;6381;45.748;12.106;2023-10-19T09:23:52;9.00;;;7.27;;
12631;SDS011;6381;45.748;12.106;2023-10-19T09:26:22;5.70;;;4.55;;
12631;SDS011;6381;45.748;12.106;2023-10-19T09:28:52;4.20;;;3.63;;
12631;SDS011;6381;45.748;12.106;2023-10-19T09:31:23;3.72;;;3.42;;
12631;SDS011;6381;45.748;12.106;2023-10-19T09:33:52;5.28;;;3.35;;
12631;SDS011;6381;45.748;12.106;2023-10-19T09:36:22;3.40;;;2.80;;
12631;SDS011;6381;45.748;12.106;2023-10-19T09:38:54;3.83;;;3.35;;
12631;SDS011;6381;45.748;12.106;2023-10-19T09:41:24;4.10;;;2.83;;
12631;SDS011;6381;45.748;12.106;2023-10-19T09:43:57;4.07;;;3.15;;
12631;SDS011;6381;45.748;12.106;2023-10-19T09:46:33;3.13;;;2.45;;
12631;SDS011;6381;45.748;12.106;2023-10-19T09:49:06;2.22;;;2.03;;
12631;SDS011;6381;45.748;12.106;2023-10-19T09:51:38;2.00;;;1.80;;
12631;SDS011;6381;45.748;12.106;2023-10-19T09:54:22;2.45;;;2.00;;
12631;SDS011;6381;45.748;12.106;2023-10-19T09:56:58;2.13;;;1.90;;
12631;SDS011;6381;45.748;12.106;2023-10-19T09:59:33;2.00;;;1.80;;
12631;SDS011;6381;45.748;12.106;2023-10-19T10:02:10;2.30;;;1.80;;
12631;SDS011;6381;45.748;12.106;2023-10-19T10:04:42;2.17;;;1.98;;
12631;SDS011;6381;45.748;12.106;2023-10-19T10:07:13;2.10;;;1.90;;
12631;SDS011;6381;45.748;12.106;2023-10-19T10:09:57;2.10;;;1.90;;
12631;SDS011;6381;45.748;12.106;2023-10-19T10:12:26;3.53;;;1.92;;
12631;SDS011;6381;45.748;12.106;2023-10-19T10:14:56;2.28;;;2.05;;
12631;SDS011;6381;45.748;12.106;2023-10-19T10:17:27;2.20;;;2.00;;
12631;SDS011;6381;45.748;12.106;2023-10-19T10:20:28;2.50;;;2.17;;
12631;SDS011;6381;45.748;12.106;2023-10-19T10:23:17;2.67;;;2.33;;
12631;SDS011;6381;45.748;12.106;2023-10-19T10:25:51;3.50;;;2.60;;
12631;SDS011;6381;45.748;12.106;2023-10-19T10:28:21;3.17;;;2.50;;
12631;SDS011;6381;45.748;12.106;2023-10-19T10:31:07;3.30;;;3.00;;
12631;SDS011;6381;45.748;12.106;2023-10-19T10:33:43;2.97;;;2.67;;
12631;SDS011;6381;45.748;12.106;2023-10-19T10:36:13;4.00;;;3.13;;
12631;SDS011;6381;45.748;12.106;2023-10-19T10:38:44;3.40;;;3.10;;
12631;SDS011;6381;45.748;12.106;2023-10-19T10:41:19;3.72;;;3.42;;
12631;SDS011;6381;45.748;12.106;2023-10-19T10:43:51;3.65;;;3.35;;
12631;SDS011;6381;45.748;12.106;2023-10-19T10:46:22;4.30;;;3.70;;
12631;SDS011;6381;45.748;12.106;2023-10-19T10:48:54;4.47;;;4.07;;
12631;SDS011;6381;45.748;12.106;2023-10-19T10:51:23;4.20;;;3.80;;
12631;SDS011;6381;45.748;12.106;2023-10-19T10:53:54;4.25;;;3.85;;
12631;SDS011;6381;45.748;12.106;2023-10-19T10:56:23;5.18;;;4.65;;
12631;SDS011;6381;45.748;12.106;2023-10-19T10:58:52;5.25;;;4.75;;
12631;SDS011;6381;45.748;12.106;2023-10-19T11:01:28;5.18;;;4.78;;
12631;SDS011;6381;45.748;12.106;2023-10-19T11:04:07;4.60;;;4.20;;
12631;SDS011;6381;45.748;12.106;2023-10-19T11:06:50;4.95;;;4.55;;
12631;SDS011;6381;45.748;12.106;2023-10-19T11:09:22;5.97;;;4.78;;
12631;SDS011;6381;45.748;12.106;2023-10-19T11:11:51;5.82;;;5.30;;
12631;SDS011;6381;45.748;12.106;2023-10-19T11:14:22;5.78;;;5.28;;
12631;SDS011;6381;45.748;12.106;2023-10-19T11:16:52;5.65;;;5.07;;
12631;SDS011;6381;45.748;12.106;2023-10-19T11:19:22;6.05;;;5.45;;
12631;SDS011;6381;45.748;12.106;2023-10-19T11:22:09;6.93;;;6.30;;
12631;SDS011;6381;45.748;12.106;2023-10-19T11:24:38;7.05;;;6.32;;
12631;SDS011;6381;45.748;12.106;2023-10-19T11:27:07;8.38;;;7.05;;
12631;SDS011;6381;45.748;12.106;2023-10-19T11:29:52;7.68;;;6.97;;
12631;SDS011;6381;45.748;12.106;2023-10-19T11:32:22;7.57;;;6.82;;
12631;SDS011;6381;45.748;12.106;2023-10-19T11:34:54;7.32;;;6.72;;
12631;SDS011;6381;45.748;12.106;2023-10-19T11:37:23;8.10;;;7.30;;
12631;SDS011;6381;45.748;12.106;2023-10-19T11:39:51;7.85;;;7.15;;
12631;SDS011;6381;45.748;12.106;2023-10-19T11:42:20;7.82;;;7.03;;
12631;SDS011;6381;45.748;12.106;2023-10-19T11:44:50;8.77;;;7.45;;
12631;SDS011;6381;45.748;12.106;2023-10-19T11:47:19;7.57;;;6.90;;
12631;SDS011;6381;45.748;12.106;2023-10-19T11:49:48;11.32;;;8.50;;
12631;SDS011;6381;45.748;12.106;2023-10-19T11:52:18;9.77;;;8.80;;
12631;SDS011;6381;45.748;12.106;2023-10-19T11:54:48;10.10;;;9.20;;
12631;SDS011;6381;45.748;12.106;2023-10-19T11:57:16;9.15;;;8.43;;
12631;SDS011;6381;45.748;12.106;2023-10-19T11:59:46;8.77;;;7.97;;
12631;SDS011;6381;45.748;12.106;2023-10-19T12:02:22;10.00;;;8.38;;
12631;SDS011;6381;45.748;12.106;2023-10-19T12:04:51;8.82;;;8.10;;
12631;SDS011;6381;45.748;12.106;2023-10-19T12:07:21;10.05;;;9.05;;
12631;SDS011;6381;45.748;12.106;2023-10-19T12:09:50;8.13;;;7.43;;
12631;SDS011;6381;45.748;12.106;2023-10-19T12:12:19;9.35;;;8.55;;
12631;SDS011;6381;45.748;12.106;2023-10-19T12:14:48;10.05;;;8.95;;
12631;SDS011;6381;45.748;12.106;2023-10-19T12:17:16;9.18;;;8.43;;
12631;SDS011;6381;45.748;12.106;2023-10-19T12:19:45;9.57;;;8.77;;
12631;SDS011;6381;45.748;12.106;2023-10-19T12:22:14;9.27;;;6.93;;
12631;SDS011;6381;45.748;12.106;2023-10-19T12:24:44;8.10;;;7.22;;
12631;SDS011;6381;45.748;12.106;2023-10-19T12:27:13;10.50;;;7.20;;
12631;SDS011;6381;45.748;12.106;2023-10-19T12:29:42;7.18;;;6.47;;
12631;SDS011;6381;45.748;12.106;2023-10-19T12:32:10;8.02;;;7.28;;
12631;SDS011;6381;45.748;12.106;2023-10-19T12:34:40;8.10;;;7.40;;
12631;SDS011;6381;45.748;12.106;2023-10-19T12:37:09;8.80;;;8.00;;
12631;SDS011;6381;45.748;12.106;2023-10-19T12:39:39;8.90;;;8.00;;
12631;SDS011;6381;45.748;12.106;2023-10-19T12:42:13;7.63;;;6.93;;
12631;SDS011;6381;45.748;12.106;2023-10-19T12:44:42;8.68;;;7.88;;
12631;SDS011;6381;45.748;12.106;2023-10-19T12:47:13;11.07;;;7.90;;
12631;SDS011;6381;45.748;12.106;2023-10-19T12:49:44;8.73;;;7.90;;
12631;SDS011;6381;45.748;12.106;2023-10-19T12:52:14;8.30;;;7.57;;
12631;SDS011;6381;45.748;12.106;2023-10-19T12:54:44;8.82;;;8.07;;
12631;SDS011;6381;45.748;12.106;2023-10-19T12:57:16;8.32;;;7.53;;
12631;SDS011;6381;45.748;12.106;2023-10-19T12:59:46;8.38;;;7.70;;
12631;SDS011;6381;45.748;12.106;2023-10-19T13:02:17;8.63;;;7.78;;
12631;SDS011;6381;45.748;12.106;2023-10-19T13:04:47;8.93;;;8.02;;
12631;SDS011;6381;45.748;12.106;2023-10-19T13:07:16;10.10;;;9.13;;
12631;SDS011;6381;45.748;12.106;2023-10-19T13:09:44;9.38;;;8.57;;
12631;SDS011;6381;45.748;12.106;2023-10-19T13:12:16;11.95;;;9.60;;
12631;SDS011;6381;45.748;12.106;2023-10-19T13:14:50;11.48;;;9.32;;
12631;SDS011;6381;45.748;12.106;2023-10-19T13:17:19;9.65;;;8.85;;
12631;SDS011;6381;45.748;12.106;2023-10-19T13:19:48;10.00;;;9.00;;
12631;SDS011;6381;45.748;12.106;2023-10-19T13:22:21;9.70;;;8.88;;
12631;SDS011;6381;45.748;12.106;2023-10-19T13:24:51;10.98;;;9.95;;
12631;SDS011;6381;45.748;12.106;2023-10-19T13:27:21;10.88;;;9.57;;
12631;SDS011;6381;45.748;12.106;2023-10-19T13:29:50;10.43;;;9.43;;
12631;SDS011;6381;45.748;12.106;2023-10-19T13:32:19;10.30;;;9.38;;
12631;SDS011;6381;45.748;12.106;2023-10-19T13:34:48;11.00;;;10.00;;
12631;SDS011;6381;45.748;12.106;2023-10-19T13:37:16;11.60;;;10.40;;
12631;SDS011;6381;45.748;12.106;2023-10-19T13:39:45;11.75;;;10.75;;
12631;SDS011;6381;45.748;12.106;2023-10-19T13:42:14;12.07;;;10.98;;
12631;SDS011;6381;45.748;12.106;2023-10-19T13:44:44;13.70;;;12.32;;
12631;SDS011;6381;45.748;12.106;2023-10-19T13:47:13;14.68;;;13.35;;
12631;SDS011;6381;45.748;12.106;2023-10-19T13:49:42;13.13;;;11.93;;
12631;SDS011;6381;45.748;12.106;2023-10-19T13:52:11;12.80;;;11.73;;
12631;SDS011;6381;45.748;12.106;2023-10-19T13:54:41;14.00;;;12.60;;
12631;SDS011;6381;45.748;12.106;2023-10-19T13:57:10;14.50;;;13.10;;
12631;SDS011;6381;45.748;12.106;2023-10-19T13:59:39;13.73;;;12.50;;
12631;SDS011;6381;45.748;12.106;2023-10-19T14:02:09;14.50;;;13.10;;
12631;SDS011;6381;45.748;12.106;2023-10-19T14:04:38;15.43;;;13.57;;
12631;SDS011;6381;45.748;12.106;2023-10-19T14:07:07;15.18;;;13.65;;
12631;SDS011;6381;45.748;12.106;2023-10-19T14:09:35;16.02;;;14.43;;
12631;SDS011;6381;45.748;12.106;2023-10-19T14:12:05;15.05;;;13.80;;
12631;SDS011;6381;45.748;12.106;2023-10-19T14:14:34;16.58;;;15.07;;
12631;SDS011;6381;45.748;12.106;2023-10-19T14:17:03;15.95;;;14.50;;
12631;SDS011;6381;45.748;12.106;2023-10-19T14:19:33;15.63;;;14.25;;
12631;SDS011;6381;45.748;12.106;2023-10-19T14:22:02;16.40;;;15.00;;
12631;SDS011;6381;45.748;12.106;2023-10-19T14:24:31;15.95;;;14.45;;
12631;SDS011;6381;45.748;12.106;2023-10-19T14:26:59;16.50;;;15.05;;
12631;SDS011;6381;45.748;12.106;2023-10-19T14:29:29;17.70;;;16.00;;
12631;SDS011;6381;45.748;12.106;2023-10-19T14:31:58;16.40;;;14.90;;
12631;SDS011;6381;45.748;12.106;2023-10-19T14:34:27;17.48;;;15.70;;
12631;SDS011;6381;45.748;12.106;2023-10-19T14:37:00;16.65;;;15.15;;
12631;SDS011;6381;45.748;12.106;2023-10-19T14:39:30;17.23;;;15.63;;
12631;SDS011;6381;45.748;12.106;2023-10-19T14:41:59;17.33;;;15.75;;
12631;SDS011;6381;45.748;12.106;2023-10-19T14:44:27;17.65;;;15.95;;
12631;SDS011;6381;45.748;12.106;2023-10-19T14:46:56;17.70;;;16.00;;
12631;SDS011;6381;45.748;12.106;2023-10-19T14:49:25;17.50;;;15.93;;
12631;SDS011;6381;45.748;12.106;2023-10-19T14:51:54;16.80;;;15.20;;
12631;SDS011;6381;45.748;12.106;2023-10-19T14:54:24;18.63;;;16.13;;
12631;SDS011;6381;45.748;12.106;2023-10-19T14:56:53;17.45;;;15.82;;
12631;SDS011;6381;45.748;12.106;2023-10-19T14:59:21;17.33;;;15.73;;